Terminal Aerodrome Forecast
Issued by NWS

Home | Current Version | Previous Version | Text Only | Print | Product List | Glossary On
Versions: 1 2 3 4 5 6 7 8 9 10 11 12 13 14 15 16 17 18
000
FTUS46 KSGX 241700
TAFCRQ
TAF
KCRQ 241721Z 2418/2518 VRB04KT P6SM SCT250
     FM242000 26008KT P6SM SCT250
     FM250200 VRB04KT P6SM SCT250
     FM250900 VRB04KT P6SM BKN007
     FM251600 VRB04KT P6SM SCT200=

USA.gov is the U.S. government's official web portal to all federal, state and local government web resources and services.